sensor_id;sensor_type;location;lat;lon;timestamp;P1;durP1;ratioP1;P2;durP2;ratioP2
58071;SDS011;60383;46.626;18.866;2022-12-19T00:01:54;70.20;;;20.50;;
58071;SDS011;60383;46.626;18.866;2022-12-19T00:04:20;54.90;;;21.45;;
58071;SDS011;60383;46.626;18.866;2022-12-19T00:06:45;92.55;;;22.45;;
58071;SDS011;60383;46.626;18.866;2022-12-19T00:09:11;59.92;;;21.25;;
58071;SDS011;60383;46.626;18.866;2022-12-19T00:11:37;70.88;;;21.30;;
58071;SDS011;60383;46.626;18.866;2022-12-19T00:14:04;45.03;;;19.83;;
58071;SDS011;60383;46.626;18.866;2022-12-19T00:16:30;61.03;;;20.20;;
58071;SDS011;60383;46.626;18.866;2022-12-19T00:18:57;49.42;;;20.20;;
58071;SDS011;60383;46.626;18.866;2022-12-19T00:21:25;49.67;;;19.17;;
58071;SDS011;60383;46.626;18.866;2022-12-19T00:23:52;72.80;;;20.10;;
58071;SDS011;60383;46.626;18.866;2022-12-19T00:26:21;45.92;;;17.80;;
58071;SDS011;60383;46.626;18.866;2022-12-19T00:28:56;121.80;;;20.48;;
58071;SDS011;60383;46.626;18.866;2022-12-19T00:31:24;50.60;;;19.35;;
58071;SDS011;60383;46.626;18.866;2022-12-19T00:33:52;79.65;;;20.70;;
58071;SDS011;60383;46.626;18.866;2022-12-19T00:36:19;43.40;;;18.08;;
58071;SDS011;60383;46.626;18.866;2022-12-19T00:38:47;54.28;;;19.92;;
58071;SDS011;60383;46.626;18.866;2022-12-19T00:41:13;46.67;;;17.05;;
58071;SDS011;60383;46.626;18.866;2022-12-19T00:43:41;58.28;;;18.98;;
58071;SDS011;60383;46.626;18.866;2022-12-19T00:46:09;61.60;;;19.50;;
58071;SDS011;60383;46.626;18.866;2022-12-19T00:48:37;48.83;;;20.08;;
58071;SDS011;60383;46.626;18.866;2022-12-19T00:51:04;59.53;;;19.77;;
58071;SDS011;60383;46.626;18.866;2022-12-19T00:53:40;53.30;;;19.40;;
58071;SDS011;60383;46.626;18.866;2022-12-19T00:56:10;72.57;;;20.95;;
58071;SDS011;60383;46.626;18.866;2022-12-19T00:58:37;65.53;;;22.92;;
58071;SDS011;60383;46.626;18.866;2022-12-19T01:01:06;44.22;;;18.77;;
58071;SDS011;60383;46.626;18.866;2022-12-19T01:03:33;62.20;;;21.42;;
58071;SDS011;60383;46.626;18.866;2022-12-19T01:05:58;50.30;;;20.50;;
58071;SDS011;60383;46.626;18.866;2022-12-19T01:08:24;57.83;;;20.73;;
58071;SDS011;60383;46.626;18.866;2022-12-19T01:10:49;58.00;;;20.05;;
58071;SDS011;60383;46.626;18.866;2022-12-19T01:13:16;78.32;;;18.27;;
58071;SDS011;60383;46.626;18.866;2022-12-19T01:15:43;43.88;;;16.65;;
58071;SDS011;60383;46.626;18.866;2022-12-19T01:18:09;87.95;;;18.83;;
58071;SDS011;60383;46.626;18.866;2022-12-19T01:20:38;63.95;;;18.15;;
58071;SDS011;60383;46.626;18.866;2022-12-19T01:25:33;56.70;;;17.13;;
58071;SDS011;60383;46.626;18.866;2022-12-19T01:28:00;88.03;;;17.25;;
58071;SDS011;60383;46.626;18.866;2022-12-19T01:30:26;89.68;;;17.20;;
58071;SDS011;60383;46.626;18.866;2022-12-19T01:32:52;55.47;;;15.60;;
58071;SDS011;60383;46.626;18.866;2022-12-19T01:35:17;56.55;;;16.98;;
58071;SDS011;60383;46.626;18.866;2022-12-19T01:37:42;102.50;;;17.50;;
58071;SDS011;60383;46.626;18.866;2022-12-19T01:40:09;70.15;;;16.60;;
58071;SDS011;60383;46.626;18.866;2022-12-19T01:42:35;50.70;;;16.13;;
58071;SDS011;60383;46.626;18.866;2022-12-19T01:47:35;53.08;;;15.52;;
58071;SDS011;60383;46.626;18.866;2022-12-19T01:50:12;81.28;;;16.58;;
58071;SDS011;60383;46.626;18.866;2022-12-19T01:52:44;98.30;;;19.25;;
58071;SDS011;60383;46.626;18.866;2022-12-19T01:55:11;90.13;;;18.25;;
58071;SDS011;60383;46.626;18.866;2022-12-19T01:57:37;52.80;;;17.35;;
58071;SDS011;60383;46.626;18.866;2022-12-19T02:00:03;77.15;;;17.58;;
58071;SDS011;60383;46.626;18.866;2022-12-19T02:02:38;77.85;;;17.98;;
58071;SDS011;60383;46.626;18.866;2022-12-19T02:05:38;69.97;;;18.42;;
58071;SDS011;60383;46.626;18.866;2022-12-19T02:08:04;40.05;;;17.27;;
58071;SDS011;60383;46.626;18.866;2022-12-19T02:10:31;47.65;;;18.92;;
58071;SDS011;60383;46.626;18.866;2022-12-19T02:12:56;45.22;;;18.85;;
58071;SDS011;60383;46.626;18.866;2022-12-19T02:15:23;44.90;;;17.95;;
58071;SDS011;60383;46.626;18.866;2022-12-19T02:23:41;46.85;;;16.00;;
58071;SDS011;60383;46.626;18.866;2022-12-19T02:26:47;36.28;;;15.52;;
58071;SDS011;60383;46.626;18.866;2022-12-19T02:29:29;70.35;;;16.73;;
58071;SDS011;60383;46.626;18.866;2022-12-19T02:35:04;43.75;;;14.65;;
58071;SDS011;60383;46.626;18.866;2022-12-19T02:37:33;66.70;;;15.23;;
58071;SDS011;60383;46.626;18.866;2022-12-19T02:40:04;46.55;;;15.50;;
58071;SDS011;60383;46.626;18.866;2022-12-19T02:42:36;43.33;;;15.55;;
58071;SDS011;60383;46.626;18.866;2022-12-19T02:45:06;60.22;;;15.50;;
58071;SDS011;60383;46.626;18.866;2022-12-19T02:47:33;39.72;;;16.35;;
58071;SDS011;60383;46.626;18.866;2022-12-19T02:50:00;70.38;;;30.83;;
58071;SDS011;60383;46.626;18.866;2022-12-19T02:54:56;39.63;;;16.00;;
58071;SDS011;60383;46.626;18.866;2022-12-19T02:57:51;32.42;;;15.35;;
58071;SDS011;60383;46.626;18.866;2022-12-19T03:00:29;38.22;;;15.13;;
58071;SDS011;60383;46.626;18.866;2022-12-19T03:10:58;42.67;;;18.38;;
58071;SDS011;60383;46.626;18.866;2022-12-19T03:13:41;48.03;;;16.90;;
58071;SDS011;60383;46.626;18.866;2022-12-19T03:18:38;45.75;;;15.20;;
58071;SDS011;60383;46.626;18.866;2022-12-19T03:21:20;62.65;;;18.15;;
58071;SDS011;60383;46.626;18.866;2022-12-19T03:23:51;56.40;;;17.58;;
58071;SDS011;60383;46.626;18.866;2022-12-19T03:26:20;58.40;;;17.98;;
58071;SDS011;60383;46.626;18.866;2022-12-19T03:31:42;42.30;;;16.35;;
58071;SDS011;60383;46.626;18.866;2022-12-19T03:34:30;48.60;;;21.02;;
58071;SDS011;60383;46.626;18.866;2022-12-19T03:37:01;52.95;;;19.13;;
58071;SDS011;60383;46.626;18.866;2022-12-19T03:39:29;54.92;;;17.40;;
58071;SDS011;60383;46.626;18.866;2022-12-19T03:41:57;46.72;;;20.48;;
58071;SDS011;60383;46.626;18.866;2022-12-19T03:44:43;56.30;;;17.38;;
58071;SDS011;60383;46.626;18.866;2022-12-19T03:47:11;45.42;;;17.38;;
58071;SDS011;60383;46.626;18.866;2022-12-19T03:49:39;50.90;;;17.88;;
58071;SDS011;60383;46.626;18.866;2022-12-19T03:57:44;49.40;;;16.90;;
58071;SDS011;60383;46.626;18.866;2022-12-19T04:00:16;49.53;;;17.95;;
58071;SDS011;60383;46.626;18.866;2022-12-19T04:02:44;54.05;;;16.83;;
58071;SDS011;60383;46.626;18.866;2022-12-19T04:05:17;43.17;;;16.42;;
58071;SDS011;60383;46.626;18.866;2022-12-19T04:07:47;75.00;;;17.60;;
58071;SDS011;60383;46.626;18.866;2022-12-19T04:10:15;46.05;;;16.92;;
58071;SDS011;60383;46.626;18.866;2022-12-19T04:12:46;45.67;;;17.02;;
58071;SDS011;60383;46.626;18.866;2022-12-19T04:15:15;40.67;;;17.77;;
58071;SDS011;60383;46.626;18.866;2022-12-19T04:17:51;40.17;;;16.02;;
58071;SDS011;60383;46.626;18.866;2022-12-19T04:20:20;45.85;;;17.88;;
58071;SDS011;60383;46.626;18.866;2022-12-19T04:23:05;55.92;;;17.83;;
58071;SDS011;60383;46.626;18.866;2022-12-19T04:25:34;48.60;;;16.15;;
58071;SDS011;60383;46.626;18.866;2022-12-19T04:28:03;52.22;;;20.05;;
58071;SDS011;60383;46.626;18.866;2022-12-19T04:30:31;37.08;;;17.50;;
58071;SDS011;60383;46.626;18.866;2022-12-19T04:32:58;48.40;;;15.75;;
58071;SDS011;60383;46.626;18.866;2022-12-19T04:35:23;60.65;;;17.27;;
58071;SDS011;60383;46.626;18.866;2022-12-19T04:37:50;46.47;;;16.23;;
58071;SDS011;60383;46.626;18.866;2022-12-19T04:40:16;54.65;;;15.82;;
58071;SDS011;60383;46.626;18.866;2022-12-19T04:42:41;36.63;;;15.35;;
58071;SDS011;60383;46.626;18.866;2022-12-19T04:45:07;53.33;;;15.10;;
58071;SDS011;60383;46.626;18.866;2022-12-19T04:47:33;44.92;;;15.43;;
58071;SDS011;60383;46.626;18.866;2022-12-19T04:49:59;49.00;;;17.33;;
58071;SDS011;60383;46.626;18.866;2022-12-19T04:52:24;38.72;;;14.82;;
58071;SDS011;60383;46.626;18.866;2022-12-19T04:54:49;47.22;;;18.20;;
58071;SDS011;60383;46.626;18.866;2022-12-19T04:57:15;38.50;;;15.35;;
58071;SDS011;60383;46.626;18.866;2022-12-19T04:59:40;34.88;;;14.90;;
58071;SDS011;60383;46.626;18.866;2022-12-19T05:02:06;58.60;;;15.80;;
58071;SDS011;60383;46.626;18.866;2022-12-19T05:04:31;63.72;;;15.60;;
58071;SDS011;60383;46.626;18.866;2022-12-19T05:06:57;43.75;;;15.45;;
58071;SDS011;60383;46.626;18.866;2022-12-19T05:09:22;54.83;;;14.70;;
58071;SDS011;60383;46.626;18.866;2022-12-19T05:11:47;40.58;;;14.73;;
58071;SDS011;60383;46.626;18.866;2022-12-19T05:14:13;43.20;;;13.93;;
58071;SDS011;60383;46.626;18.866;2022-12-19T05:16:39;33.28;;;13.18;;
58071;SDS011;60383;46.626;18.866;2022-12-19T05:19:06;42.00;;;14.70;;
58071;SDS011;60383;46.626;18.866;2022-12-19T05:21:32;33.33;;;16.08;;
58071;SDS011;60383;46.626;18.866;2022-12-19T05:23:57;76.68;;;16.15;;
58071;SDS011;60383;46.626;18.866;2022-12-19T05:26:23;64.85;;;14.45;;
58071;SDS011;60383;46.626;18.866;2022-12-19T05:28:48;40.67;;;15.07;;
58071;SDS011;60383;46.626;18.866;2022-12-19T05:31:15;39.65;;;16.15;;
58071;SDS011;60383;46.626;18.866;2022-12-19T05:33:43;35.50;;;14.80;;
58071;SDS011;60383;46.626;18.866;2022-12-19T05:36:10;49.78;;;16.40;;
58071;SDS011;60383;46.626;18.866;2022-12-19T05:38:36;38.63;;;17.15;;
58071;SDS011;60383;46.626;18.866;2022-12-19T05:41:05;67.03;;;21.98;;
58071;SDS011;60383;46.626;18.866;2022-12-19T05:43:32;46.35;;;18.40;;
58071;SDS011;60383;46.626;18.866;2022-12-19T05:45:57;144.90;;;48.42;;
58071;SDS011;60383;46.626;18.866;2022-12-19T05:48:23;40.22;;;16.63;;
58071;SDS011;60383;46.626;18.866;2022-12-19T05:50:48;38.95;;;15.07;;
58071;SDS011;60383;46.626;18.866;2022-12-19T05:53:15;43.30;;;16.67;;
58071;SDS011;60383;46.626;18.866;2022-12-19T05:55:44;40.45;;;16.15;;
58071;SDS011;60383;46.626;18.866;2022-12-19T05:58:09;38.15;;;15.30;;
58071;SDS011;60383;46.626;18.866;2022-12-19T06:00:35;37.58;;;15.50;;
58071;SDS011;60383;46.626;18.866;2022-12-19T06:03:01;46.00;;;16.90;;
58071;SDS011;60383;46.626;18.866;2022-12-19T06:05:26;46.80;;;16.05;;
58071;SDS011;60383;46.626;18.866;2022-12-19T06:07:51;44.72;;;14.60;;
58071;SDS011;60383;46.626;18.866;2022-12-19T06:10:17;39.97;;;13.07;;
58071;SDS011;60383;46.626;18.866;2022-12-19T06:12:42;31.27;;;14.20;;
58071;SDS011;60383;46.626;18.866;2022-12-19T06:15:08;47.28;;;14.57;;
58071;SDS011;60383;46.626;18.866;2022-12-19T06:17:34;35.25;;;13.43;;
58071;SDS011;60383;46.626;18.866;2022-12-19T06:19:59;42.10;;;12.95;;
58071;SDS011;60383;46.626;18.866;2022-12-19T06:22:24;33.97;;;13.00;;
58071;SDS011;60383;46.626;18.866;2022-12-19T06:24:50;30.48;;;13.35;;
58071;SDS011;60383;46.626;18.866;2022-12-19T06:27:15;42.45;;;14.80;;
58071;SDS011;60383;46.626;18.866;2022-12-19T06:29:41;29.65;;;13.55;;
58071;SDS011;60383;46.626;18.866;2022-12-19T06:32:06;32.25;;;14.70;;
58071;SDS011;60383;46.626;18.866;2022-12-19T06:34:31;34.63;;;14.00;;
58071;SDS011;60383;46.626;18.866;2022-12-19T06:36:57;30.90;;;14.98;;
58071;SDS011;60383;46.626;18.866;2022-12-19T06:39:22;53.13;;;15.57;;
58071;SDS011;60383;46.626;18.866;2022-12-19T06:41:48;37.60;;;14.90;;
58071;SDS011;60383;46.626;18.866;2022-12-19T06:44:32;33.05;;;13.25;;
58071;SDS011;60383;46.626;18.866;2022-12-19T06:46:57;32.85;;;14.07;;
58071;SDS011;60383;46.626;18.866;2022-12-19T06:49:23;31.67;;;14.18;;
58071;SDS011;60383;46.626;18.866;2022-12-19T06:51:48;36.88;;;15.52;;
58071;SDS011;60383;46.626;18.866;2022-12-19T06:54:14;38.03;;;14.80;;
58071;SDS011;60383;46.626;18.866;2022-12-19T06:56:40;36.85;;;14.10;;
58071;SDS011;60383;46.626;18.866;2022-12-19T06:59:08;34.17;;;14.98;;
58071;SDS011;60383;46.626;18.866;2022-12-19T07:04:07;52.45;;;16.13;;
58071;SDS011;60383;46.626;18.866;2022-12-19T07:06:38;35.08;;;15.68;;
58071;SDS011;60383;46.626;18.866;2022-12-19T07:09:04;42.80;;;16.20;;
58071;SDS011;60383;46.626;18.866;2022-12-19T07:11:29;56.28;;;18.80;;
58071;SDS011;60383;46.626;18.866;2022-12-19T07:13:55;44.63;;;16.50;;
58071;SDS011;60383;46.626;18.866;2022-12-19T07:16:20;52.00;;;16.75;;
58071;SDS011;60383;46.626;18.866;2022-12-19T07:18:46;50.35;;;17.02;;
58071;SDS011;60383;46.626;18.866;2022-12-19T07:21:11;32.90;;;15.10;;
58071;SDS011;60383;46.626;18.866;2022-12-19T07:23:37;42.28;;;16.77;;
58071;SDS011;60383;46.626;18.866;2022-12-19T07:26:03;37.25;;;16.40;;
58071;SDS011;60383;46.626;18.866;2022-12-19T07:28:29;38.28;;;16.23;;
58071;SDS011;60383;46.626;18.866;2022-12-19T07:30:54;40.63;;;17.33;;
58071;SDS011;60383;46.626;18.866;2022-12-19T07:33:20;50.72;;;17.13;;
58071;SDS011;60383;46.626;18.866;2022-12-19T07:35:45;38.67;;;16.63;;
58071;SDS011;60383;46.626;18.866;2022-12-19T07:38:11;41.05;;;17.80;;
58071;SDS011;60383;46.626;18.866;2022-12-19T07:40:38;39.72;;;17.33;;
58071;SDS011;60383;46.626;18.866;2022-12-19T07:43:04;40.15;;;18.30;;
58071;SDS011;60383;46.626;18.866;2022-12-19T07:45:31;40.00;;;17.00;;
58071;SDS011;60383;46.626;18.866;2022-12-19T07:48:00;42.45;;;17.92;;
58071;SDS011;60383;46.626;18.866;2022-12-19T07:50:27;44.60;;;19.65;;
58071;SDS011;60383;46.626;18.866;2022-12-19T07:52:53;43.22;;;18.80;;
58071;SDS011;60383;46.626;18.866;2022-12-19T07:55:18;43.42;;;18.85;;
58071;SDS011;60383;46.626;18.866;2022-12-19T07:57:44;49.85;;;22.80;;
58071;SDS011;60383;46.626;18.866;2022-12-19T08:00:09;43.17;;;20.95;;
58071;SDS011;60383;46.626;18.866;2022-12-19T08:02:35;42.00;;;19.23;;
58071;SDS011;60383;46.626;18.866;2022-12-19T08:05:00;46.03;;;20.77;;
58071;SDS011;60383;46.626;18.866;2022-12-19T08:07:27;46.50;;;21.95;;
58071;SDS011;60383;46.626;18.866;2022-12-19T08:09:52;41.28;;;20.65;;
58071;SDS011;60383;46.626;18.866;2022-12-19T08:12:18;45.38;;;20.77;;
58071;SDS011;60383;46.626;18.866;2022-12-19T08:14:43;43.47;;;20.25;;
58071;SDS011;60383;46.626;18.866;2022-12-19T08:17:09;46.67;;;21.60;;
58071;SDS011;60383;46.626;18.866;2022-12-19T08:19:34;43.28;;;21.65;;
58071;SDS011;60383;46.626;18.866;2022-12-19T08:22:00;48.53;;;21.65;;
58071;SDS011;60383;46.626;18.866;2022-12-19T08:24:25;49.95;;;21.75;;
58071;SDS011;60383;46.626;18.866;2022-12-19T08:26:50;49.10;;;22.20;;
58071;SDS011;60383;46.626;18.866;2022-12-19T08:29:16;55.55;;;22.45;;
58071;SDS011;60383;46.626;18.866;2022-12-19T08:31:41;47.53;;;21.67;;
58071;SDS011;60383;46.626;18.866;2022-12-19T08:34:07;48.55;;;23.75;;
58071;SDS011;60383;46.626;18.866;2022-12-19T08:36:32;39.50;;;17.98;;
58071;SDS011;60383;46.626;18.866;2022-12-19T08:38:58;52.83;;;24.75;;
58071;SDS011;60383;46.626;18.866;2022-12-19T08:41:24;49.72;;;23.30;;
58071;SDS011;60383;46.626;18.866;2022-12-19T08:43:50;49.30;;;21.48;;
58071;SDS011;60383;46.626;18.866;2022-12-19T08:46:18;50.08;;;22.85;;
58071;SDS011;60383;46.626;18.866;2022-12-19T08:48:44;44.83;;;20.65;;
58071;SDS011;60383;46.626;18.866;2022-12-19T08:51:10;51.35;;;22.35;;
58071;SDS011;60383;46.626;18.866;2022-12-19T08:53:37;48.58;;;22.27;;
58071;SDS011;60383;46.626;18.866;2022-12-19T08:56:05;46.22;;;22.40;;
58071;SDS011;60383;46.626;18.866;2022-12-19T08:58:34;51.15;;;21.83;;
58071;SDS011;60383;46.626;18.866;2022-12-19T09:01:00;49.30;;;24.60;;
58071;SDS011;60383;46.626;18.866;2022-12-19T09:03:26;51.40;;;24.63;;
58071;SDS011;60383;46.626;18.866;2022-12-19T09:05:58;51.97;;;24.52;;
58071;SDS011;60383;46.626;18.866;2022-12-19T09:08:26;49.53;;;23.67;;
58071;SDS011;60383;46.626;18.866;2022-12-19T09:10:59;53.65;;;24.95;;
58071;SDS011;60383;46.626;18.866;2022-12-19T09:13:28;50.20;;;23.00;;
58071;SDS011;60383;46.626;18.866;2022-12-19T09:15:59;51.10;;;23.08;;
58071;SDS011;60383;46.626;18.866;2022-12-19T09:18:29;47.10;;;22.77;;
58071;SDS011;60383;46.626;18.866;2022-12-19T09:20:58;53.65;;;26.45;;
58071;SDS011;60383;46.626;18.866;2022-12-19T09:23:24;51.03;;;23.08;;
58071;SDS011;60383;46.626;18.866;2022-12-19T09:25:53;49.72;;;23.52;;
58071;SDS011;60383;46.626;18.866;2022-12-19T09:28:20;52.10;;;24.50;;
58071;SDS011;60383;46.626;18.866;2022-12-19T09:30:53;52.67;;;24.60;;
58071;SDS011;60383;46.626;18.866;2022-12-19T09:33:20;55.15;;;25.10;;
58071;SDS011;60383;46.626;18.866;2022-12-19T09:35:49;56.08;;;24.65;;
58071;SDS011;60383;46.626;18.866;2022-12-19T09:38:15;61.43;;;28.10;;
58071;SDS011;60383;46.626;18.866;2022-12-19T09:40:45;49.80;;;25.25;;
58071;SDS011;60383;46.626;18.866;2022-12-19T09:44:04;49.22;;;24.00;;
58071;SDS011;60383;46.626;18.866;2022-12-19T09:48:59;57.95;;;26.90;;
58071;SDS011;60383;46.626;18.866;2022-12-19T09:51:33;54.30;;;26.27;;
58071;SDS011;60383;46.626;18.866;2022-12-19T09:54:06;53.42;;;26.33;;
58071;SDS011;60383;46.626;18.866;2022-12-19T09:56:39;54.28;;;24.63;;
58071;SDS011;60383;46.626;18.866;2022-12-19T09:59:30;54.25;;;26.13;;
58071;SDS011;60383;46.626;18.866;2022-12-19T10:02:19;54.08;;;24.02;;
58071;SDS011;60383;46.626;18.866;2022-12-19T10:05:03;46.47;;;24.10;;
58071;SDS011;60383;46.626;18.866;2022-12-19T10:07:38;53.65;;;25.35;;
58071;SDS011;60383;46.626;18.866;2022-12-19T10:10:04;50.75;;;24.83;;
58071;SDS011;60383;46.626;18.866;2022-12-19T10:15:37;45.30;;;22.50;;
58071;SDS011;60383;46.626;18.866;2022-12-19T10:21:40;43.05;;;20.10;;
58071;SDS011;60383;46.626;18.866;2022-12-19T10:27:00;38.42;;;19.45;;
58071;SDS011;60383;46.626;18.866;2022-12-19T10:35:16;40.50;;;19.10;;
58071;SDS011;60383;46.626;18.866;2022-12-19T10:37:47;40.83;;;20.13;;
58071;SDS011;60383;46.626;18.866;2022-12-19T10:45:45;40.70;;;20.50;;
58071;SDS011;60383;46.626;18.866;2022-12-19T10:48:18;42.13;;;22.48;;
58071;SDS011;60383;46.626;18.866;2022-12-19T10:50:47;37.20;;;18.30;;
58071;SDS011;60383;46.626;18.866;2022-12-19T10:53:13;39.78;;;19.30;;
58071;SDS011;60383;46.626;18.866;2022-12-19T10:55:41;40.78;;;20.27;;
58071;SDS011;60383;46.626;18.866;2022-12-19T10:58:16;37.95;;;18.10;;
58071;SDS011;60383;46.626;18.866;2022-12-19T11:01:25;44.85;;;20.77;;
58071;SDS011;60383;46.626;18.866;2022-12-19T11:03:47;38.03;;;19.90;;
58071;SDS011;60383;46.626;18.866;2022-12-19T11:11:46;41.28;;;20.75;;
58071;SDS011;60383;46.626;18.866;2022-12-19T11:14:20;44.00;;;22.63;;
58071;SDS011;60383;46.626;18.866;2022-12-19T11:16:49;46.83;;;22.55;;
58071;SDS011;60383;46.626;18.866;2022-12-19T11:19:26;46.70;;;21.75;;
58071;SDS011;60383;46.626;18.866;2022-12-19T11:21:58;43.97;;;22.80;;
58071;SDS011;60383;46.626;18.866;2022-12-19T11:24:35;46.45;;;20.95;;
58071;SDS011;60383;46.626;18.866;2022-12-19T11:29:55;44.92;;;21.35;;
58071;SDS011;60383;46.626;18.866;2022-12-19T11:35:04;43.35;;;21.13;;
58071;SDS011;60383;46.626;18.866;2022-12-19T11:40:42;44.35;;;21.95;;
58071;SDS011;60383;46.626;18.866;2022-12-19T11:56:34;44.22;;;20.85;;
58071;SDS011;60383;46.626;18.866;2022-12-19T11:59:00;48.17;;;21.23;;
58071;SDS011;60383;46.626;18.866;2022-12-19T12:07:31;38.33;;;20.55;;
58071;SDS011;60383;46.626;18.866;2022-12-19T12:10:15;43.50;;;21.45;;
58071;SDS011;60383;46.626;18.866;2022-12-19T12:20:57;40.70;;;20.52;;
58071;SDS011;60383;46.626;18.866;2022-12-19T12:23:33;44.67;;;21.60;;
58071;SDS011;60383;46.626;18.866;2022-12-19T12:26:12;45.42;;;21.90;;
58071;SDS011;60383;46.626;18.866;2022-12-19T12:29:01;46.92;;;22.83;;
58071;SDS011;60383;46.626;18.866;2022-12-19T12:40:33;44.75;;;22.27;;
58071;SDS011;60383;46.626;18.866;2022-12-19T12:46:01;43.13;;;21.02;;
58071;SDS011;60383;46.626;18.866;2022-12-19T12:51:18;41.50;;;20.38;;
58071;SDS011;60383;46.626;18.866;2022-12-19T12:53:45;36.00;;;16.83;;
58071;SDS011;60383;46.626;18.866;2022-12-19T12:56:12;38.63;;;19.23;;
58071;SDS011;60383;46.626;18.866;2022-12-19T13:01:31;40.85;;;19.88;;
58071;SDS011;60383;46.626;18.866;2022-12-19T13:06:37;39.33;;;20.50;;
58071;SDS011;60383;46.626;18.866;2022-12-19T13:20:53;37.63;;;18.80;;
58071;SDS011;60383;46.626;18.866;2022-12-19T13:25:53;38.22;;;18.40;;
58071;SDS011;60383;46.626;18.866;2022-12-19T13:39:20;41.90;;;19.20;;
58071;SDS011;60383;46.626;18.866;2022-12-19T13:41:51;40.50;;;19.45;;
58071;SDS011;60383;46.626;18.866;2022-12-19T13:44:45;40.63;;;19.80;;
58071;SDS011;60383;46.626;18.866;2022-12-19T13:47:14;40.15;;;21.02;;
58071;SDS011;60383;46.626;18.866;2022-12-19T13:49:39;45.33;;;20.30;;
58071;SDS011;60383;46.626;18.866;2022-12-19T13:52:08;40.83;;;21.52;;
58071;SDS011;60383;46.626;18.866;2022-12-19T13:54:36;36.33;;;18.90;;
58071;SDS011;60383;46.626;18.866;2022-12-19T13:57:25;44.75;;;20.67;;
58071;SDS011;60383;46.626;18.866;2022-12-19T13:59:54;42.78;;;19.95;;
58071;SDS011;60383;46.626;18.866;2022-12-19T14:02:37;42.67;;;20.85;;
58071;SDS011;60383;46.626;18.866;2022-12-19T14:05:12;44.28;;;21.70;;
58071;SDS011;60383;46.626;18.866;2022-12-19T14:07:50;42.42;;;19.92;;
58071;SDS011;60383;46.626;18.866;2022-12-19T14:10:18;40.58;;;20.60;;
58071;SDS011;60383;46.626;18.866;2022-12-19T14:12:46;47.13;;;22.05;;
58071;SDS011;60383;46.626;18.866;2022-12-19T14:15:40;44.03;;;20.77;;
58071;SDS011;60383;46.626;18.866;2022-12-19T14:23:38;47.35;;;23.08;;
58071;SDS011;60383;46.626;18.866;2022-12-19T14:26:06;43.75;;;21.73;;
58071;SDS011;60383;46.626;18.866;2022-12-19T14:31:12;45.20;;;22.48;;
58071;SDS011;60383;46.626;18.866;2022-12-19T14:33:41;46.38;;;22.98;;
58071;SDS011;60383;46.626;18.866;2022-12-19T14:36:11;45.55;;;22.45;;
58071;SDS011;60383;46.626;18.866;2022-12-19T14:38:38;44.80;;;22.27;;
58071;SDS011;60383;46.626;18.866;2022-12-19T14:41:04;43.92;;;21.58;;
58071;SDS011;60383;46.626;18.866;2022-12-19T14:43:30;46.53;;;22.15;;
58071;SDS011;60383;46.626;18.866;2022-12-19T14:48:52;45.97;;;20.90;;
58071;SDS011;60383;46.626;18.866;2022-12-19T14:54:05;47.47;;;22.30;;
58071;SDS011;60383;46.626;18.866;2022-12-19T14:59:21;45.05;;;20.90;;
58071;SDS011;60383;46.626;18.866;2022-12-19T15:01:54;41.33;;;20.00;;
58071;SDS011;60383;46.626;18.866;2022-12-19T15:04:25;42.28;;;21.92;;
58071;SDS011;60383;46.626;18.866;2022-12-19T15:06:55;44.28;;;20.65;;
58071;SDS011;60383;46.626;18.866;2022-12-19T15:09:23;43.25;;;20.15;;
58071;SDS011;60383;46.626;18.866;2022-12-19T15:11:52;41.95;;;20.77;;
58071;SDS011;60383;46.626;18.866;2022-12-19T15:14:45;44.45;;;21.70;;
58071;SDS011;60383;46.626;18.866;2022-12-19T15:19:45;43.25;;;20.65;;
58071;SDS011;60383;46.626;18.866;2022-12-19T15:22:11;45.50;;;20.77;;
58071;SDS011;60383;46.626;18.866;2022-12-19T15:24:37;45.28;;;20.80;;
58071;SDS011;60383;46.626;18.866;2022-12-19T15:27:02;45.40;;;21.85;;
58071;SDS011;60383;46.626;18.866;2022-12-19T15:29:28;44.45;;;22.15;;
58071;SDS011;60383;46.626;18.866;2022-12-19T15:31:54;44.63;;;21.40;;
58071;SDS011;60383;46.626;18.866;2022-12-19T15:34:27;41.55;;;20.70;;
58071;SDS011;60383;46.626;18.866;2022-12-19T15:36:54;41.85;;;20.83;;
58071;SDS011;60383;46.626;18.866;2022-12-19T15:39:21;46.42;;;21.55;;
58071;SDS011;60383;46.626;18.866;2022-12-19T15:41:49;43.20;;;21.50;;
58071;SDS011;60383;46.626;18.866;2022-12-19T15:49:16;41.42;;;20.63;;
58071;SDS011;60383;46.626;18.866;2022-12-19T15:51:43;46.30;;;21.13;;
58071;SDS011;60383;46.626;18.866;2022-12-19T15:54:08;42.38;;;20.17;;
58071;SDS011;60383;46.626;18.866;2022-12-19T15:56:36;43.72;;;21.92;;
58071;SDS011;60383;46.626;18.866;2022-12-19T15:59:04;44.50;;;21.27;;
58071;SDS011;60383;46.626;18.866;2022-12-19T16:01:41;48.35;;;22.05;;
58071;SDS011;60383;46.626;18.866;2022-12-19T16:04:07;45.08;;;22.98;;
58071;SDS011;60383;46.626;18.866;2022-12-19T16:06:37;49.15;;;23.15;;
58071;SDS011;60383;46.626;18.866;2022-12-19T16:09:05;47.13;;;22.45;;
58071;SDS011;60383;46.626;18.866;2022-12-19T16:11:42;45.47;;;21.88;;
58071;SDS011;60383;46.626;18.866;2022-12-19T16:14:08;46.47;;;22.00;;
58071;SDS011;60383;46.626;18.866;2022-12-19T16:16:36;48.50;;;23.10;;
58071;SDS011;60383;46.626;18.866;2022-12-19T16:19:02;47.53;;;22.77;;
58071;SDS011;60383;46.626;18.866;2022-12-19T16:21:27;48.67;;;22.98;;
58071;SDS011;60383;46.626;18.866;2022-12-19T16:23:53;47.97;;;23.48;;
58071;SDS011;60383;46.626;18.866;2022-12-19T16:26:34;50.20;;;23.80;;
58071;SDS011;60383;46.626;18.866;2022-12-19T16:29:04;47.30;;;22.45;;
58071;SDS011;60383;46.626;18.866;2022-12-19T16:31:30;50.13;;;22.90;;
58071;SDS011;60383;46.626;18.866;2022-12-19T16:33:56;49.85;;;22.63;;
58071;SDS011;60383;46.626;18.866;2022-12-19T16:36:21;50.15;;;23.63;;
58071;SDS011;60383;46.626;18.866;2022-12-19T16:38:47;46.17;;;22.38;;
58071;SDS011;60383;46.626;18.866;2022-12-19T16:41:17;48.42;;;22.42;;
58071;SDS011;60383;46.626;18.866;2022-12-19T16:43:45;49.40;;;23.10;;
58071;SDS011;60383;46.626;18.866;2022-12-19T16:46:18;51.60;;;23.98;;
58071;SDS011;60383;46.626;18.866;2022-12-19T16:48:45;55.38;;;25.55;;
58071;SDS011;60383;46.626;18.866;2022-12-19T16:51:21;52.42;;;24.08;;
58071;SDS011;60383;46.626;18.866;2022-12-19T16:53:49;49.95;;;23.23;;
58071;SDS011;60383;46.626;18.866;2022-12-19T16:58:59;50.40;;;24.42;;
58071;SDS011;60383;46.626;18.866;2022-12-19T17:01:26;53.25;;;24.63;;
58071;SDS011;60383;46.626;18.866;2022-12-19T17:03:52;52.30;;;24.73;;
58071;SDS011;60383;46.626;18.866;2022-12-19T17:06:19;47.42;;;22.90;;
58071;SDS011;60383;46.626;18.866;2022-12-19T17:08:45;54.47;;;25.73;;
58071;SDS011;60383;46.626;18.866;2022-12-19T17:11:16;51.00;;;23.02;;
58071;SDS011;60383;46.626;18.866;2022-12-19T17:13:54;49.63;;;23.90;;
58071;SDS011;60383;46.626;18.866;2022-12-19T17:16:27;47.13;;;22.52;;